Pine Coupee, Louisiana
Current Conditions -  °F | °C
As of 12:29 AM on Monday 22 Dec 2014 (Local Time) from KAEX Reporting Station
Haze Haze  
Wind Chill: 47°   Ceiling: 200
Heat Index: 49°   Visibility: 1.5mi
Dew Point: 48°   Wind: 5mph
Humidity: 97%   Direction: 170°S
Pressure: 29.89"   Gusts: NA
Location:  31.408°N, 92.8831°W
Report Text: KAEX 220629Z 17004KT 1 1/2SM BR OVC002 09/09 A2989 RMK AO2 T00940089
Loading
Personal Weather Stations






























Interactive Weather Map New forecast layout! Learn more

10-Day Weather Forecast

Advertisements
Track Severe Weather on mobile